Time;durP1;ratioP1;P1;durP2;ratioP2;P2;SDS_P1;SDS_P2;PMS_P1;PMS_P2;Temp;Humidity;BMP_temperature;BMP_pressure;BME280_temperature;BME280_humidity;BME280_pressure;Samples;Min_cycle;Max_cycle;Signal;HPM_P1;HPM_P2
2023/12/18 00:01:08;;;;;;;35.80;9.20;;;8.30;99.90;;;;;;5094067;28;20312;-74
2023/12/18 00:03:33;;;;;;;29.93;10.00;;;8.30;99.90;;;;;;5092449;28;20457;-74
2023/12/18 00:05:59;;;;;;;30.63;10.17;;;8.30;99.90;;;;;;5092882;28;20519;-74
2023/12/18 00:08:25;;;;;;;26.07;9.23;;;8.30;99.90;;;;;;5094197;28;20055;-75
2023/12/18 00:10:51;;;;;;;26.60;9.57;;;8.30;99.90;;;;;;5093375;28;20491;-75
2023/12/18 00:13:16;;;;;;;28.07;9.77;;;8.30;99.90;;;;;;5093390;28;20083;-74
2023/12/18 00:15:42;;;;;;;25.20;9.00;;;8.30;99.90;;;;;;5092152;28;20052;-74
2023/12/18 00:18:08;;;;;;;26.03;9.43;;;8.30;99.90;;;;;;5093333;28;20130;-74
2023/12/18 00:20:33;;;;;;;23.67;8.20;;;8.30;99.90;;;;;;5093768;28;20100;-74
2023/12/18 00:22:59;;;;;;;34.73;8.73;;;8.30;99.90;;;;;;5092922;28;20055;-74
2023/12/18 00:25:25;;;;;;;24.07;8.83;;;8.30;99.90;;;;;;5093266;28;20048;-74
2023/12/18 00:27:51;;;;;;;27.67;8.97;;;8.30;99.90;;;;;;5094094;28;20040;-74
2023/12/18 00:30:17;;;;;;;23.77;7.90;;;8.30;99.90;;;;;;5093170;28;20515;-74
2023/12/18 00:32:42;;;;;;;27.37;8.00;;;8.30;99.90;;;;;;5093681;28;20368;-74
2023/12/18 00:35:08;;;;;;;25.60;8.13;;;8.30;99.90;;;;;;5075381;28;20093;-74
2023/12/18 00:37:34;;;;;;;32.07;7.77;;;8.30;99.90;;;;;;5092983;28;20123;-75
2023/12/18 00:39:59;;;;;;;23.07;7.57;;;8.30;99.90;;;;;;5075733;28;20463;-75
2023/12/18 00:42:25;;;;;;;28.17;8.13;;;8.30;99.90;;;;;;5093183;28;20048;-74
2023/12/18 00:44:51;;;;;;;21.37;6.73;;;8.40;99.90;;;;;;5093116;28;20044;-75
2023/12/18 00:47:18;;;;;;;20.87;7.40;;;8.40;99.90;;;;;;5075319;28;20131;-74
2023/12/18 00:49:44;;;;;;;26.53;6.90;;;8.40;99.90;;;;;;5093086;28;20088;-74
2023/12/18 00:52:10;;;;;;;28.63;7.40;;;8.40;99.90;;;;;;5095936;28;20294;-74
2023/12/18 00:54:35;;;;;;;18.10;6.63;;;8.40;99.90;;;;;;5096683;28;20335;-74
2023/12/18 00:57:01;;;;;;;23.57;7.30;;;8.40;99.90;;;;;;5096575;28;20460;-74
2023/12/18 00:59:27;;;;;;;25.80;7.07;;;8.40;99.90;;;;;;5094938;28;20055;-74
2023/12/18 01:01:53;;;;;;;24.87;7.27;;;8.40;99.90;;;;;;5078980;28;20052;-74
2023/12/18 01:04:19;;;;;;;20.37;6.40;;;8.40;99.90;;;;;;5096255;28;20312;-74
2023/12/18 01:06:45;;;;;;;22.87;7.13;;;8.40;99.90;;;;;;5096157;28;20071;-74
2023/12/18 01:09:12;;;;;;;22.57;6.70;;;8.40;99.90;;;;;;5096186;28;20087;-74
2023/12/18 01:11:38;;;;;;;22.50;7.17;;;8.40;99.90;;;;;;5094918;28;20797;-74
2023/12/18 01:14:04;;;;;;;24.90;6.83;;;8.40;99.90;;;;;;5095193;28;20294;-75
2023/12/18 01:16:30;;;;;;;20.63;5.67;;;8.40;99.90;;;;;;5096316;28;20051;-74
2023/12/18 01:18:56;;;;;;;24.17;7.97;;;8.40;99.90;;;;;;5096222;28;20048;-74
2023/12/18 01:21:22;;;;;;;24.77;6.73;;;8.40;99.90;;;;;;5095223;28;20313;-74
2023/12/18 01:23:48;;;;;;;25.47;5.83;;;8.40;99.90;;;;;;5095905;28;20073;-74
2023/12/18 01:26:13;;;;;;;21.23;6.20;;;8.40;99.90;;;;;;5096027;28;20056;-74
2023/12/18 01:28:40;;;;;;;18.90;6.07;;;8.40;99.90;;;;;;5095955;28;20056;-75
2023/12/18 01:31:07;;;;;;;21.23;5.30;;;8.50;99.90;;;;;;5096681;28;20040;-74
2023/12/18 01:33:33;;;;;;;19.37;4.90;;;8.50;99.90;;;;;;5095916;28;20313;-74
2023/12/18 01:35:59;;;;;;;26.10;5.23;;;8.50;99.90;;;;;;5096730;28;20664;-74
2023/12/18 01:38:25;;;;;;;24.57;4.33;;;8.50;99.90;;;;;;5094937;28;20275;-74
2023/12/18 01:40:51;;;;;;;21.20;4.47;;;8.60;99.90;;;;;;5095799;28;20123;-74
2023/12/18 01:43:26;;;;;;;18.43;4.30;;;8.60;99.90;;;;;;5095784;28;20048;-74
2023/12/18 01:46:01;;;;;;;18.20;5.23;;;8.60;99.90;;;;;;5095696;28;20112;-74
2023/12/18 01:48:28;;;;;;;17.15;4.57;;;8.60;99.90;;;;;;5095822;28;20266;-74
2023/12/18 01:50:55;;;;;;;26.73;5.23;;;8.60;99.90;;;;;;5095464;28;20040;-74
2023/12/18 01:53:27;;;;;;;19.83;5.80;;;8.70;99.90;;;;;;5094916;28;20282;-74
2023/12/18 01:55:54;;;;;;;20.03;4.60;;;8.70;99.90;;;;;;5094127;28;20751;-74
2023/12/18 01:58:20;;;;;;;15.77;4.43;;;8.70;99.90;;;;;;5095427;28;20357;-74
2023/12/18 02:00:47;;;;;;;15.57;4.10;;;8.70;99.90;;;;;;5094013;28;20369;-74
2023/12/18 02:03:15;;;;;;;17.17;5.00;;;8.70;99.90;;;;;;5095271;28;20278;-74
2023/12/18 02:05:42;;;;;;;20.03;5.50;;;8.70;99.90;;;;;;5095034;28;20762;-74
2023/12/18 02:08:07;;;;;;;16.23;4.63;;;8.70;99.90;;;;;;5095251;28;20274;-74
2023/12/18 02:10:34;;;;;;;18.30;5.00;;;8.70;99.90;;;;;;5095183;28;20355;-74
2023/12/18 02:12:59;;;;;;;15.20;4.43;;;8.70;99.90;;;;;;5095077;28;20048;-74
2023/12/18 02:15:25;;;;;;;19.03;4.60;;;8.70;99.90;;;;;;5095152;28;20278;-74
2023/12/18 02:17:51;;;;;;;19.83;4.87;;;8.70;99.90;;;;;;5077202;28;20158;-74
2023/12/18 02:20:16;;;;;;;20.80;4.77;;;8.70;99.90;;;;;;5095047;28;20161;-74
2023/12/18 02:22:48;;;;;;;22.87;4.57;;;8.70;99.90;;;;;;5095440;28;20472;-75
2023/12/18 02:25:17;;;;;;;22.20;5.33;;;8.70;99.90;;;;;;5095218;28;20559;-74
2023/12/18 02:27:45;;;;;;;18.80;4.67;;;8.70;99.90;;;;;;5094595;28;20774;-75
2023/12/18 02:30:18;;;;;;;18.13;4.50;;;8.70;99.90;;;;;;5094747;28;20274;-74
2023/12/18 02:32:44;;;;;;;19.97;4.47;;;8.70;99.90;;;;;;5093672;28;20337;-74
2023/12/18 02:35:10;;;;;;;20.07;4.47;;;8.70;99.90;;;;;;5094741;28;20286;-74
2023/12/18 02:37:36;;;;;;;23.90;5.67;;;8.70;99.90;;;;;;5094748;28;20055;-74
2023/12/18 02:40:02;;;;;;;17.77;5.60;;;8.70;99.90;;;;;;5094182;28;20282;-74
2023/12/18 02:42:27;;;;;;;22.60;4.50;;;8.70;99.90;;;;;;5095465;28;20055;-74
2023/12/18 02:44:56;;;;;;;16.07;4.70;;;8.70;99.90;;;;;;5093865;28;20286;-74
2023/12/18 02:47:22;;;;;;;21.73;5.30;;;8.70;99.90;;;;;;5094517;28;20044;-74
2023/12/18 02:49:48;;;;;;;22.13;5.03;;;8.80;99.90;;;;;;5094764;28;20753;-74
2023/12/18 02:52:14;;;;;;;20.87;4.80;;;8.80;99.90;;;;;;5094347;28;20388;-74
2023/12/18 02:54:39;;;;;;;25.40;4.80;;;8.80;99.90;;;;;;5094415;28;20521;-74
2023/12/18 02:57:05;;;;;;;21.83;4.20;;;8.80;99.90;;;;;;5094323;28;20055;-74
2023/12/18 02:59:31;;;;;;;20.83;4.77;;;8.80;99.90;;;;;;5094029;28;20052;-74
2023/12/18 03:01:57;;;;;;;16.40;4.30;;;8.80;99.90;;;;;;5092898;28;20051;-74
2023/12/18 03:04:23;;;;;;;22.37;4.73;;;8.80;99.90;;;;;;5093442;28;20101;-75
2023/12/18 03:06:49;;;;;;;22.07;5.27;;;8.80;99.90;;;;;;5092827;28;20044;-75
2023/12/18 03:09:15;;;;;;;18.43;4.73;;;8.80;99.90;;;;;;5093794;28;20070;-75
2023/12/18 03:11:41;;;;;;;24.37;5.60;;;8.80;99.90;;;;;;5094491;28;20289;-74
2023/12/18 03:14:10;;;;;;;19.23;5.57;;;8.80;99.90;;;;;;5093187;28;20105;-74
2023/12/18 03:16:37;;;;;;;20.60;4.73;;;8.80;99.90;;;;;;5094043;28;20365;-74
2023/12/18 03:19:03;;;;;;;24.60;5.30;;;8.80;99.90;;;;;;5093986;28;20286;-74
2023/12/18 03:21:29;;;;;;;24.47;5.30;;;8.70;99.90;;;;;;5094769;28;20286;-74
2023/12/18 03:23:55;;;;;;;21.97;5.23;;;8.70;99.90;;;;;;5093938;28;20515;-75
2023/12/18 03:26:20;;;;;;;27.10;5.73;;;8.70;99.90;;;;;;5093779;28;20044;-74
2023/12/18 03:28:46;;;;;;;18.13;5.23;;;8.70;99.90;;;;;;5094123;28;20129;-75
2023/12/18 03:31:12;;;;;;;22.13;5.27;;;8.70;99.90;;;;;;5093725;28;20071;-74
2023/12/18 03:33:38;;;;;;;24.70;5.90;;;8.70;99.90;;;;;;5092678;28;20044;-74
2023/12/18 03:36:05;;;;;;;23.60;5.33;;;8.70;99.90;;;;;;5092844;28;20376;-74
2023/12/18 03:38:30;;;;;;;20.17;4.93;;;8.70;99.90;;;;;;5093809;28;20270;-74
2023/12/18 03:40:56;;;;;;;20.47;5.00;;;8.70;99.90;;;;;;5093644;28;20285;-74
2023/12/18 03:43:25;;;;;;;19.40;4.30;;;8.70;99.90;;;;;;5093670;28;20142;-74
2023/12/18 03:45:50;;;;;;;25.03;4.73;;;8.70;99.90;;;;;;5093448;28;20134;-74
2023/12/18 03:48:18;;;;;;;19.33;4.60;;;8.70;99.90;;;;;;5093640;28;20367;-74
2023/12/18 03:50:44;;;;;;;25.07;5.07;;;8.70;99.90;;;;;;5093514;28;20044;-74
2023/12/18 03:53:10;;;;;;;21.43;4.83;;;8.70;99.90;;;;;;5094139;28;20305;-74
2023/12/18 03:55:36;;;;;;;22.30;4.33;;;8.80;99.90;;;;;;5075919;28;20052;-74
2023/12/18 03:58:02;;;;;;;18.37;4.83;;;8.70;99.90;;;;;;5093517;28;20335;-74
2023/12/18 04:00:28;;;;;;;22.17;4.73;;;8.80;99.90;;;;;;5093298;28;20052;-74
2023/12/18 04:02:54;;;;;;;23.00;5.17;;;8.80;99.90;;;;;;5092491;28;20403;-74
2023/12/18 04:05:20;;;;;;;17.87;4.40;;;8.80;99.90;;;;;;5092139;28;20048;-74
2023/12/18 04:07:46;;;;;;;26.20;6.03;;;8.80;99.90;;;;;;5092160;28;20344;-74
2023/12/18 04:10:12;;;;;;;20.17;4.33;;;8.80;99.90;;;;;;5093155;28;20131;-75
2023/12/18 04:12:38;;;;;;;23.53;4.80;;;8.80;99.90;;;;;;5092455;28;20094;-74
2023/12/18 04:15:06;;;;;;;18.23;4.60;;;8.80;99.90;;;;;;5093299;28;20769;-74
2023/12/18 04:17:32;;;;;;;19.37;5.43;;;8.80;99.90;;;;;;5092198;28;20435;-74
2023/12/18 04:19:58;;;;;;;18.50;4.47;;;8.80;99.90;;;;;;5092422;28;20713;-75
2023/12/18 04:22:24;;;;;;;23.83;5.90;;;8.80;99.90;;;;;;5093533;28;20279;-74
2023/12/18 04:24:49;;;;;;;26.20;6.70;;;8.80;99.90;;;;;;5109143;28;20399;-74
2023/12/18 04:27:15;;;;;;;26.53;7.00;;;8.80;99.90;;;;;;5098183;28;20055;-74
2023/12/18 04:29:41;;;;;;;22.37;5.77;;;8.80;99.90;;;;;;5097258;28;20048;-74
2023/12/18 04:32:07;;;;;;;24.70;6.20;;;8.80;99.90;;;;;;5097099;28;20146;-74
2023/12/18 04:34:32;;;;;;;23.47;5.63;;;8.80;99.90;;;;;;5097169;28;20044;-74
2023/12/18 04:36:58;;;;;;;27.73;7.20;;;8.80;99.90;;;;;;5097820;28;20448;-74
2023/12/18 04:39:23;;;;;;;26.60;5.53;;;8.80;99.90;;;;;;5096984;28;20106;-74
2023/12/18 04:41:49;;;;;;;26.33;6.50;;;8.80;99.90;;;;;;5096914;28;20040;-74
2023/12/18 04:44:16;;;;;;;26.33;7.20;;;8.80;99.90;;;;;;5095644;28;20400;-75
2023/12/18 04:46:42;;;;;;;20.13;5.80;;;8.80;99.90;;;;;;5096840;28;20040;-74
2023/12/18 04:49:09;;;;;;;22.03;4.87;;;8.80;99.90;;;;;;5096818;28;20290;-75
2023/12/18 04:51:35;;;;;;;18.10;5.33;;;8.80;99.90;;;;;;5095545;28;20333;-75
2023/12/18 04:54:01;;;;;;;27.13;6.27;;;8.80;99.90;;;;;;5095725;28;20308;-75
2023/12/18 04:56:26;;;;;;;27.07;6.03;;;8.80;99.90;;;;;;5095550;28;20833;-74
2023/12/18 04:58:52;;;;;;;19.60;5.73;;;8.80;99.90;;;;;;5096369;28;20051;-74
2023/12/18 05:01:18;;;;;;;19.63;5.37;;;8.80;99.90;;;;;;5096701;28;20147;-75
2023/12/18 05:03:43;;;;;;;27.70;6.93;;;8.80;99.90;;;;;;5096489;28;20048;-74
2023/12/18 05:06:19;;;;;;;22.10;6.23;;;8.80;99.90;;;;;;5096509;28;20048;-75
2023/12/18 05:08:45;;;;;;;20.00;6.50;;;8.80;99.90;;;;;;5095354;28;20131;-75
2023/12/18 05:11:11;;;;;;;25.60;8.03;;;8.80;99.90;;;;;;5097143;28;20308;-75
2023/12/18 05:13:36;;;;;;;30.43;7.60;;;8.80;99.90;;;;;;5095584;28;20373;-75
2023/12/18 05:16:02;;;;;;;20.13;6.70;;;8.80;99.90;;;;;;5096193;28;20048;-75
2023/12/18 05:18:28;;;;;;;29.50;6.87;;;8.80;99.90;;;;;;5096336;28;20048;-75
2023/12/18 05:20:57;;;;;;;26.67;7.90;;;8.80;99.90;;;;;;5095290;28;20052;-75
2023/12/18 05:23:23;;;;;;;23.30;7.73;;;8.80;99.90;;;;;;5096146;28;20091;-75
2023/12/18 05:25:50;;;;;;;29.73;8.50;;;8.80;99.90;;;;;;5096144;28;20698;-75
2023/12/18 05:28:16;;;;;;;17.83;8.00;;;8.80;99.90;;;;;;5095879;28;20286;-75
2023/12/18 05:30:41;;;;;;;24.77;8.60;;;8.80;99.90;;;;;;5096441;28;20309;-75
2023/12/18 05:33:07;;;;;;;31.03;9.47;;;8.80;99.90;;;;;;5095515;28;20457;-75
2023/12/18 05:35:33;;;;;;;24.40;7.87;;;8.80;99.90;;;;;;5094875;28;20524;-75
2023/12/18 05:37:59;;;;;;;24.37;7.93;;;8.80;99.90;;;;;;5095491;28;20420;-74
2023/12/18 05:40:24;;;;;;;24.70;9.77;;;8.70;99.90;;;;;;5095812;28;20123;-75
2023/12/18 05:42:50;;;;;;;18.73;8.60;;;8.70;99.90;;;;;;5096652;28;20518;-75
2023/12/18 05:45:16;;;;;;;27.20;9.90;;;8.70;99.90;;;;;;5094755;28;20498;-75
2023/12/18 05:47:42;;;;;;;24.53;9.73;;;8.70;99.90;;;;;;5096264;28;20125;-75
2023/12/18 05:50:08;;;;;;;25.03;9.93;;;8.70;99.90;;;;;;5094951;28;20738;-74
2023/12/18 05:52:34;;;;;;;24.20;10.33;;;8.70;99.90;;;;;;5095543;28;20510;-74
2023/12/18 05:54:59;;;;;;;26.37;10.37;;;8.70;99.90;;;;;;5095372;28;20283;-74
2023/12/18 05:57:25;;;;;;;26.73;11.63;;;8.70;99.90;;;;;;5094809;28;20048;-75
2023/12/18 05:59:51;;;;;;;29.47;11.17;;;8.70;99.90;;;;;;5094237;28;20121;-74
2023/12/18 06:02:16;;;;;;;26.63;10.67;;;8.70;99.90;;;;;;5094363;28;20048;-74
2023/12/18 06:04:43;;;;;;;34.93;12.10;;;8.70;99.90;;;;;;5095707;28;20090;-74
2023/12/18 06:07:10;;;;;;;26.17;11.40;;;8.70;99.90;;;;;;5095352;28;20056;-74
2023/12/18 06:09:36;;;;;;;30.87;11.57;;;8.70;99.90;;;;;;5094086;28;20285;-74
2023/12/18 06:12:02;;;;;;;27.37;10.30;;;8.70;99.90;;;;;;5061424;28;20355;-74
2023/12/18 06:14:28;;;;;;;27.07;10.90;;;8.70;99.90;;;;;;5095206;28;20278;-74
2023/12/18 06:16:54;;;;;;;28.53;11.43;;;8.70;99.90;;;;;;5094820;28;20353;-74
2023/12/18 06:19:19;;;;;;;28.30;10.47;;;8.70;99.90;;;;;;5093916;28;20051;-74
2023/12/18 06:21:45;;;;;;;29.30;10.20;;;8.70;99.90;;;;;;5094914;28;20475;-74
2023/12/18 06:24:11;;;;;;;28.30;11.17;;;8.70;99.90;;;;;;5094983;28;20483;-74
2023/12/18 06:26:36;;;;;;;24.40;11.10;;;8.70;99.90;;;;;;5093797;28;20126;-75
2023/12/18 06:29:02;;;;;;;25.63;11.60;;;8.70;99.90;;;;;;5095458;28;20044;-74
2023/12/18 06:31:28;;;;;;;29.50;12.03;;;8.70;99.90;;;;;;5094803;28;20101;-74
2023/12/18 06:33:53;;;;;;;36.97;12.50;;;8.70;99.90;;;;;;5095361;28;20476;-74
2023/12/18 06:36:19;;;;;;;26.83;11.77;;;8.70;99.90;;;;;;5093818;28;20055;-74
2023/12/18 06:38:45;;;;;;;34.97;12.87;;;8.60;99.90;;;;;;5076747;28;20396;-74
2023/12/18 06:41:11;;;;;;;28.80;12.07;;;8.70;99.90;;;;;;5093328;28;20055;-74
2023/12/18 06:43:38;;;;;;;33.70;13.40;;;8.70;99.90;;;;;;5094603;28;20274;-74
2023/12/18 06:46:04;;;;;;;34.73;12.43;;;8.60;99.90;;;;;;5093632;28;20078;-74
2023/12/18 06:48:30;;;;;;;30.10;12.67;;;8.60;99.90;;;;;;5094296;28;20332;-74
2023/12/18 06:50:56;;;;;;;35.87;14.70;;;8.60;99.90;;;;;;5094433;28;20302;-74
2023/12/18 06:53:22;;;;;;;32.63;14.00;;;8.60;99.90;;;;;;5094352;28;20040;-74
2023/12/18 06:55:47;;;;;;;32.87;12.97;;;8.60;99.90;;;;;;5094574;28;20423;-74
2023/12/18 06:58:13;;;;;;;27.63;12.80;;;8.60;99.90;;;;;;5094899;28;20122;-75
2023/12/18 07:00:39;;;;;;;28.60;13.10;;;8.60;99.90;;;;;;5093186;28;20067;-75
2023/12/18 07:03:04;;;;;;;35.07;13.83;;;8.60;99.90;;;;;;5094769;28;20044;-75
2023/12/18 07:05:30;;;;;;;26.50;13.83;;;8.60;99.90;;;;;;5093295;28;20189;-75
2023/12/18 07:07:56;;;;;;;27.67;13.33;;;8.60;99.90;;;;;;5092588;28;20047;-74
2023/12/18 07:10:22;;;;;;;34.70;13.90;;;8.60;99.90;;;;;;5094194;28;20051;-75
2023/12/18 07:12:48;;;;;;;30.97;13.90;;;8.60;99.90;;;;;;5094092;28;20285;-74
2023/12/18 07:15:14;;;;;;;31.07;13.00;;;8.60;99.90;;;;;;5094131;28;20694;-75
2023/12/18 07:17:40;;;;;;;26.87;14.30;;;8.60;99.90;;;;;;5093963;28;20109;-74
2023/12/18 07:20:08;;;;;;;34.57;14.47;;;8.60;99.90;;;;;;5093949;28;20282;-74
2023/12/18 07:22:34;;;;;;;30.13;13.50;;;8.60;99.90;;;;;;5094763;28;20274;-75
2023/12/18 07:25:01;;;;;;;34.93;13.80;;;8.60;99.90;;;;;;5093229;28;20296;-75
2023/12/18 07:27:27;;;;;;;26.73;13.40;;;8.60;99.90;;;;;;5092614;28;20286;-74
2023/12/18 07:29:53;;;;;;;34.33;15.57;;;8.60;99.90;;;;;;5094147;28;20289;-74
2023/12/18 07:32:18;;;;;;;34.47;13.23;;;8.60;99.90;;;;;;5093697;28;20040;-74
2023/12/18 07:34:45;;;;;;;34.03;14.30;;;8.60;99.90;;;;;;5093642;28;20040;-74
2023/12/18 07:37:11;;;;;;;29.17;13.10;;;8.60;99.90;;;;;;5093645;28;20084;-74
2023/12/18 07:39:46;;;;;;;34.40;13.93;;;8.60;99.90;;;;;;5093681;28;20306;-74
2023/12/18 07:42:12;;;;;;;29.02;13.75;;;8.60;99.90;;;;;;5094595;28;20044;-75
2023/12/18 07:44:37;;;;;;;28.97;12.07;;;8.60;99.90;;;;;;5092523;28;20051;-75
2023/12/18 07:47:06;;;;;;;34.33;14.23;;;8.60;99.90;;;;;;5075814;28;20051;-75
2023/12/18 07:49:32;;;;;;;28.43;13.50;;;8.60;99.90;;;;;;5092969;28;20048;-73
2023/12/18 07:51:58;;;;;;;31.97;15.17;;;8.60;99.90;;;;;;5093651;28;20381;-79
2023/12/18 07:54:23;;;;;;;29.70;15.27;;;8.60;99.90;;;;;;5092613;28;20391;-79
2023/12/18 07:56:49;;;;;;;33.03;15.23;;;8.60;99.90;;;;;;5092712;28;20048;-76
2023/12/18 07:59:17;;;;;;;32.63;15.20;;;8.60;99.90;;;;;;5093708;28;20113;-76
2023/12/18 08:01:43;;;;;;;40.97;16.80;;;8.60;99.90;;;;;;5097523;28;20098;-76
2023/12/18 08:04:10;;;;;;;34.10;16.00;;;8.60;99.90;;;;;;5096537;28;20751;-75
2023/12/18 08:06:35;;;;;;;29.57;14.27;;;8.60;99.90;;;;;;5098210;28;20040;-80
2023/12/18 08:09:01;;;;;;;28.70;15.20;;;8.60;99.90;;;;;;5096647;28;20297;-81
2023/12/18 08:11:27;;;;;;;31.43;16.03;;;8.60;99.90;;;;;;5096472;28;20135;-81
2023/12/18 08:13:52;;;;;;;30.80;15.37;;;8.60;99.90;;;;;;5097577;28;20453;-78
2023/12/18 08:16:18;;;;;;;30.50;16.03;;;8.70;99.90;;;;;;5096373;28;20083;-73
2023/12/18 08:18:44;;;;;;;28.03;16.20;;;8.60;99.90;;;;;;5096596;28;20098;-83
2023/12/18 08:21:14;;;;;;;36.10;16.60;;;8.60;99.90;;;;;;5098111;28;20593;-83
2023/12/18 08:23:44;;;;;;;29.83;16.87;;;8.60;99.90;;;;;;5096472;28;20812;-83
2023/12/18 08:26:16;;;;;;;31.00;17.03;;;8.60;99.90;;;;;;5096164;28;20286;-84
2023/12/18 08:28:43;;;;;;;39.87;18.07;;;8.60;99.90;;;;;;5098120;28;20336;-84
2023/12/18 08:31:09;;;;;;;31.53;16.50;;;8.60;99.90;;;;;;5079171;28;20301;-84
2023/12/18 08:33:34;;;;;;;31.07;16.37;;;8.60;99.90;;;;;;5097720;28;20279;-84
2023/12/18 08:36:00;;;;;;;31.30;16.13;;;8.60;99.90;;;;;;5096472;28;20282;-84
2023/12/18 08:38:28;;;;;;;32.33;16.10;;;8.60;99.90;;;;;;5097034;28;20169;-83
2023/12/18 08:40:54;;;;;;;32.57;16.20;;;8.60;99.90;;;;;;5079240;28;20052;-84
2023/12/18 08:43:19;;;;;;;38.03;16.77;;;8.60;99.90;;;;;;5097034;28;20270;-84
2023/12/18 08:45:45;;;;;;;37.37;16.33;;;8.60;99.90;;;;;;5095893;28;20122;-84
2023/12/18 08:48:11;;;;;;;32.57;17.13;;;8.60;99.90;;;;;;5079382;28;20060;-84
2023/12/18 08:50:37;;;;;;;31.63;16.37;;;8.60;99.90;;;;;;5062334;28;20285;-84
2023/12/18 08:53:03;;;;;;;35.50;16.90;;;8.60;99.90;;;;;;5096771;28;20052;-84
2023/12/18 08:55:29;;;;;;;34.27;16.00;;;8.60;99.90;;;;;;5097067;28;20087;-84
2023/12/18 08:57:55;;;;;;;32.63;15.63;;;8.70;99.90;;;;;;5097345;28;20282;-84
2023/12/18 09:00:20;;;;;;;28.87;15.90;;;8.70;99.90;;;;;;5095388;28;20059;-84
2023/12/18 09:02:46;;;;;;;30.63;17.03;;;8.70;99.90;;;;;;5095421;28;20048;-84
2023/12/18 09:05:12;;;;;;;33.10;16.87;;;8.70;99.90;;;;;;5095929;28;20371;-84
2023/12/18 09:07:37;;;;;;;32.97;15.27;;;8.70;99.90;;;;;;5078804;28;20055;-83
2023/12/18 09:10:04;;;;;;;35.93;16.10;;;8.70;99.90;;;;;;5097747;28;20597;-84
2023/12/18 09:12:29;;;;;;;36.77;17.00;;;8.80;99.90;;;;;;5077587;28;20083;-84
2023/12/18 09:14:55;;;;;;;35.47;16.57;;;8.70;99.90;;;;;;5096906;28;20321;-84
2023/12/18 09:17:21;;;;;;;28.87;16.70;;;8.80;99.90;;;;;;5078639;28;20108;-84
2023/12/18 09:19:46;;;;;;;32.90;16.40;;;8.80;99.90;;;;;;5095064;28;20051;-82
2023/12/18 09:22:12;;;;;;;31.40;16.53;;;8.80;99.90;;;;;;5096286;28;20508;-82
2023/12/18 09:24:38;;;;;;;36.37;15.60;;;8.80;99.90;;;;;;5096706;28;20044;-76
2023/12/18 09:27:04;;;;;;;31.77;17.67;;;8.80;99.90;;;;;;5094942;28;20093;-82
2023/12/18 09:29:29;;;;;;;31.77;16.30;;;8.80;99.90;;;;;;5078089;28;20048;-82
2023/12/18 09:31:55;;;;;;;33.27;16.37;;;8.80;99.90;;;;;;5096500;28;20089;-81
2023/12/18 09:34:21;;;;;;;29.53;16.20;;;8.80;99.90;;;;;;5094984;28;20044;-83
2023/12/18 09:36:46;;;;;;;29.67;16.30;;;8.90;99.90;;;;;;5095367;28;20052;-82
2023/12/18 09:39:14;;;;;;;31.77;15.57;;;8.90;99.90;;;;;;5094734;28;20093;-82
2023/12/18 09:41:40;;;;;;;39.30;15.97;;;8.90;99.90;;;;;;5096128;28;20115;-81
2023/12/18 09:44:06;;;;;;;36.10;16.57;;;8.90;99.90;;;;;;5096588;28;20801;-82
2023/12/18 09:46:31;;;;;;;36.73;16.77;;;8.90;99.90;;;;;;5096297;28;20100;-81
2023/12/18 09:48:57;;;;;;;34.63;17.30;;;9.00;99.90;;;;;;5095641;28;20116;-81
2023/12/18 09:51:25;;;;;;;32.03;17.53;;;9.00;99.90;;;;;;5095564;28;20040;-81
2023/12/18 09:53:52;;;;;;;28.40;15.50;;;9.00;99.90;;;;;;5095940;28;20044;-89
2023/12/18 09:56:22;;;;;;;32.40;17.27;;;9.00;99.90;;;;;;5095609;28;20286;-87
2023/12/18 09:58:48;;;;;;;28.27;16.67;;;9.00;99.90;;;;;;5096189;28;20610;-82
2023/12/18 10:01:15;;;;;;;30.33;17.20;;;9.00;99.90;;;;;;5095184;28;20282;-87
2023/12/18 10:03:41;;;;;;;33.73;17.57;;;9.00;99.90;;;;;;5095364;28;20105;-86
2023/12/18 10:06:08;;;;;;;39.00;18.97;;;9.00;99.90;;;;;;5096338;28;20277;-87
2023/12/18 10:08:35;;;;;;;34.80;19.00;;;9.00;99.90;;;;;;5094457;28;20363;-84
2023/12/18 10:11:01;;;;;;;30.00;18.40;;;9.00;99.90;;;;;;5094668;28;20306;-86
2023/12/18 10:13:27;;;;;;;30.77;17.40;;;9.00;99.90;;;;;;5095378;28;20855;-86
2023/12/18 10:15:53;;;;;;;31.37;17.53;;;9.00;99.90;;;;;;5095229;28;20318;-89
2023/12/18 10:18:23;;;;;;;30.97;17.43;;;9.00;99.90;;;;;;5077287;28;20371;-83
2023/12/18 10:20:49;;;;;;;34.00;18.43;;;9.00;99.90;;;;;;5077458;28;20286;-84
2023/12/18 10:23:16;;;;;;;35.03;20.47;;;9.00;99.90;;;;;;5094424;28;20285;-81
2023/12/18 10:25:41;;;;;;;34.90;19.30;;;9.00;99.90;;;;;;5094615;28;20694;-80
2023/12/18 10:28:07;;;;;;;35.43;19.37;;;9.00;99.90;;;;;;5093450;28;20324;-78
2023/12/18 10:30:36;;;;;;;36.70;19.17;;;9.00;99.90;;;;;;5094722;28;20094;-77
2023/12/18 10:33:05;;;;;;;36.10;19.23;;;9.00;99.90;;;;;;5094674;28;20048;-80
2023/12/18 10:35:32;;;;;;;29.77;17.50;;;9.00;99.90;;;;;;5077221;28;20672;-85
2023/12/18 10:38:00;;;;;;;33.17;18.23;;;9.00;99.90;;;;;;5093759;28;20682;-80
2023/12/18 10:40:27;;;;;;;37.13;19.77;;;9.00;99.90;;;;;;5093505;28;20286;-81
2023/12/18 10:43:15;;;;;;;29.60;18.73;;;9.00;99.90;;;;;;5093397;28;20317;-82
2023/12/18 10:45:42;;;;;;;33.07;18.50;;;9.00;99.90;;;;;;5093742;28;20278;-80
2023/12/18 10:48:09;;;;;;;34.23;19.07;;;9.00;99.90;;;;;;5093385;28;20360;-78
2023/12/18 10:50:36;;;;;;;32.00;18.77;;;9.00;99.90;;;;;;5093413;28;20290;-81
2023/12/18 10:53:04;;;;;;;29.30;18.27;;;9.00;99.90;;;;;;5094487;28;20274;-82
2023/12/18 10:55:31;;;;;;;32.03;17.40;;;9.00;99.90;;;;;;5093727;28;20642;-82
2023/12/18 10:57:59;;;;;;;36.50;18.30;;;9.00;99.90;;;;;;5093457;28;20290;-83
2023/12/18 11:00:25;;;;;;;38.10;19.07;;;9.10;99.90;;;;;;5092901;28;20314;-81
2023/12/18 11:02:52;;;;;;;34.70;19.63;;;9.10;99.90;;;;;;5094126;28;20347;-81
2023/12/18 11:05:19;;;;;;;36.87;17.53;;;9.10;99.90;;;;;;5094765;28;20672;-84
2023/12/18 11:07:46;;;;;;;36.87;17.57;;;9.10;99.90;;;;;;5093266;28;20309;-79
2023/12/18 11:10:11;;;;;;;34.83;18.00;;;9.10;99.90;;;;;;5094104;28;20274;-80
2023/12/18 11:12:39;;;;;;;31.90;18.10;;;9.10;99.90;;;;;;5092767;28;20301;-81
2023/12/18 11:15:21;;;;;;;36.47;17.87;;;9.10;99.90;;;;;;5094377;28;20047;-77
2023/12/18 11:18:15;;;;;;;28.20;16.30;;;9.10;99.90;;;;;;5093098;28;20286;-86
2023/12/18 11:20:42;;;;;;;29.17;16.90;;;9.10;99.90;;;;;;5093361;28;20774;-83
2023/12/18 11:23:10;;;;;;;30.43;17.40;;;9.10;99.90;;;;;;5096762;28;20336;-85
2023/12/18 11:25:47;;;;;;;31.80;18.03;;;9.10;99.90;;;;;;5094090;28;20321;-85
2023/12/18 11:28:13;;;;;;;29.23;17.10;;;9.20;99.90;;;;;;5093383;28;20286;-84
2023/12/18 11:30:43;;;;;;;30.87;18.37;;;9.20;99.90;;;;;;5094092;28;20738;-87
2023/12/18 11:33:10;;;;;;;35.90;17.60;;;9.20;99.90;;;;;;5076078;28;20040;-82
2023/12/18 11:35:37;;;;;;;29.33;18.37;;;9.20;99.90;;;;;;5092571;28;20649;-83
2023/12/18 11:38:13;;;;;;;33.63;19.13;;;9.20;99.90;;;;;;5092840;28;20834;-83
2023/12/18 11:40:48;;;;;;;35.30;19.07;;;9.20;99.90;;;;;;5092780;28;20286;-82
2023/12/18 11:43:36;;;;;;;26.75;17.83;;;9.20;99.90;;;;;;5094368;28;20274;-76
2023/12/18 11:46:05;;;;;;;28.47;17.50;;;9.20;99.90;;;;;;5094385;28;20389;-85
2023/12/18 11:48:32;;;;;;;37.50;20.07;;;9.20;99.90;;;;;;5093761;28;20281;-80
2023/12/18 11:50:57;;;;;;;34.77;19.33;;;9.20;99.90;;;;;;5092385;28;20298;-79
2023/12/18 11:53:23;;;;;;;29.57;17.57;;;9.20;99.90;;;;;;5092546;28;20274;-80
2023/12/18 11:55:53;;;;;;;28.07;18.40;;;9.20;99.90;;;;;;5093474;28;20535;-80
2023/12/18 11:58:25;;;;;;;30.07;18.13;;;9.20;99.90;;;;;;5094016;28;20052;-81
2023/12/18 12:00:50;;;;;;;31.20;18.47;;;9.20;99.90;;;;;;5094389;28;20318;-80
2023/12/18 12:03:17;;;;;;;35.43;19.07;;;9.20;99.90;;;;;;5094350;28;20663;-80
2023/12/18 12:05:45;;;;;;;30.20;18.47;;;9.30;99.90;;;;;;5093598;28;20048;-79
2023/12/18 12:08:11;;;;;;;30.80;18.00;;;9.30;99.90;;;;;;5093597;28;20278;-85
2023/12/18 12:10:41;;;;;;;28.43;17.70;;;9.30;99.90;;;;;;5093428;28;20369;-85
2023/12/18 12:13:07;;;;;;;41.57;18.70;;;9.30;99.90;;;;;;5093873;28;20282;-83
2023/12/18 12:15:33;;;;;;;34.50;18.77;;;9.30;99.90;;;;;;5092180;28;20849;-79
2023/12/18 12:18:05;;;;;;;34.87;18.23;;;9.30;99.90;;;;;;5093346;28;20369;-83
2023/12/18 12:20:32;;;;;;;37.00;18.67;;;9.30;99.90;;;;;;5093404;28;20040;-83
2023/12/18 12:22:58;;;;;;;33.80;19.23;;;9.30;99.90;;;;;;5092333;28;20351;-80
2023/12/18 12:25:24;;;;;;;33.87;18.23;;;9.30;99.90;;;;;;5093216;28;20286;-83
2023/12/18 12:27:50;;;;;;;31.40;19.40;;;9.30;99.90;;;;;;5075221;28;20290;-82
2023/12/18 12:30:17;;;;;;;32.50;18.70;;;9.30;99.90;;;;;;5093138;28;20317;-83
2023/12/18 12:32:44;;;;;;;35.60;17.83;;;9.30;99.90;;;;;;5091586;28;20302;-83
2023/12/18 12:35:11;;;;;;;33.47;18.10;;;9.30;99.90;;;;;;5092930;28;20642;-83
2023/12/18 12:37:37;;;;;;;31.07;17.07;;;9.30;99.90;;;;;;5093238;28;20278;-84